Time;durP1;ratioP1;P1;durP2;ratioP2;P2;SDS_P1;SDS_P2;PMS_P1;PMS_P2;Temp;Humidity;BMP_temperature;BMP_pressure;BME280_temperature;BME280_humidity;BME280_pressure;Samples;Min_cycle;Max_cycle;Signal;HPM_P1;HPM_P2
2023/10/05 00:03:58;;;;;;;5.82;1.52;;;;;;;11.78;100.00;101539.41;5098503;28;20047;-76
2023/10/05 00:06:42;;;;;;;5.50;1.45;;;;;;;11.73;100.00;101537.47;5101186;28;20042;-76
2023/10/05 00:09:27;;;;;;;6.93;1.90;;;;;;;11.70;100.00;101532.47;5102493;28;20066;-76
2023/10/05 00:12:18;;;;;;;4.75;1.63;;;;;;;11.68;100.00;101515.19;5109420;28;20486;-76
2023/10/05 00:17:49;;;;;;;6.25;1.38;;;;;;;11.58;100.00;101510.44;5088264;28;20084;-76
2023/10/05 00:20:38;;;;;;;4.82;1.63;;;;;;;11.56;100.00;101509.06;5098875;28;20055;-76
2023/10/05 00:23:23;;;;;;;4.82;1.27;;;;;;;11.52;100.00;101502.38;5119132;28;20043;-76
2023/10/05 00:26:08;;;;;;;4.63;1.33;;;;;;;11.51;100.00;101496.00;5092941;28;20039;-76
2023/10/05 00:32:06;;;;;;;3.03;1.20;;;;;;;11.43;100.00;101506.81;5092400;27;20065;-76
2023/10/05 00:35:10;;;;;;;4.75;1.65;;;;;;;11.36;100.00;101499.56;5082677;28;20042;-76
2023/10/05 00:38:07;;;;;;;3.40;1.27;;;;;;;11.30;100.00;101500.66;5100890;28;20533;-76
2023/10/05 00:41:03;;;;;;;6.40;1.65;;;;;;;11.24;100.00;101504.56;5083450;28;20161;-76
2023/10/05 00:43:47;;;;;;;4.53;1.45;;;;;;;11.23;100.00;101511.22;5078726;28;20561;-76
2023/10/05 00:46:33;;;;;;;7.20;1.50;;;;;;;11.21;100.00;101515.41;5107097;28;20067;-76
2023/10/05 00:49:21;;;;;;;5.13;1.63;;;;;;;11.15;100.00;101518.16;5094938;28;20050;-76
2023/10/05 00:52:15;;;;;;;7.75;2.00;;;;;;;11.13;100.00;101525.09;5115781;28;20047;-76
2023/10/05 00:55:03;;;;;;;6.00;2.00;;;;;;;11.09;100.00;101516.47;5103554;28;20034;-76
2023/10/05 00:57:48;;;;;;;6.88;1.80;;;;;;;11.07;100.00;101520.63;5118180;28;20173;-76
2023/10/05 01:00:48;;;;;;;6.18;1.52;;;;;;;11.04;100.00;101518.41;5097446;28;20096;-76
2023/10/05 01:03:35;;;;;;;4.28;1.40;;;;;;;11.00;100.00;101518.09;5092659;28;20092;-76
2023/10/05 01:06:29;;;;;;;6.72;1.50;;;;;;;10.94;100.00;101517.25;5102770;28;20512;-76
2023/10/05 01:09:38;;;;;;;7.18;1.58;;;;;;;10.92;100.00;101516.69;5100875;28;20050;-76
2023/10/05 01:12:36;;;;;;;3.70;1.77;;;;;;;10.87;100.00;101513.88;5111630;28;20038;-76
2023/10/05 01:15:30;;;;;;;7.50;2.03;;;;;;;10.84;100.00;101520.00;5100146;28;20038;-76
2023/10/05 01:18:14;;;;;;;4.55;1.77;;;;;;;10.79;100.00;101519.97;5076869;28;20034;-76
2023/10/05 01:21:02;;;;;;;4.13;1.55;;;;;;;10.77;100.00;101515.78;5106975;28;20043;-76
2023/10/05 01:23:48;;;;;;;7.07;1.85;;;;;;;10.75;100.00;101504.94;5117941;28;20053;-76
2023/10/05 01:26:34;;;;;;;4.75;1.27;;;;;;;10.72;100.00;101497.13;5106996;28;20088;-76
2023/10/05 01:29:20;;;;;;;5.45;1.73;;;;;;;10.66;100.00;101496.28;5062655;28;20034;-76
2023/10/05 01:32:05;;;;;;;5.00;1.50;;;;;;;10.59;100.00;101506.00;5080158;28;20051;-76
2023/10/05 01:34:50;;;;;;;5.25;2.10;;;;;;;10.55;100.00;101499.28;5094278;28;20104;-76
2023/10/05 01:37:36;;;;;;;5.75;1.60;;;;;;;10.49;100.00;101507.59;5078333;28;20548;-76
2023/10/05 01:43:05;;;;;;;5.72;1.90;;;;;;;10.43;100.00;101494.78;5110226;28;20064;-76
2023/10/05 01:45:50;;;;;;;4.07;1.52;;;;;;;10.43;100.00;101499.50;5090168;28;20169;-76
2023/10/05 01:48:34;;;;;;;4.95;1.60;;;;;;;10.33;100.00;101493.88;5101095;28;20053;-76
2023/10/05 01:51:23;;;;;;;5.30;1.63;;;;;;;10.32;100.00;101489.44;5088887;28;20088;-76
2023/10/05 01:54:16;;;;;;;5.70;1.45;;;;;;;10.25;100.00;101486.84;5111715;28;20092;-76
2023/10/05 01:57:04;;;;;;;5.55;1.73;;;;;;;10.22;100.00;101485.47;5081079;28;20108;-76
2023/10/05 01:59:49;;;;;;;11.70;2.13;;;;;;;10.19;100.00;101497.09;5090278;28;20095;-76
2023/10/05 02:02:34;;;;;;;7.47;1.90;;;;;;;10.17;100.00;101493.78;5093257;28;20429;-76
2023/10/05 02:05:20;;;;;;;6.97;1.50;;;;;;;10.12;100.00;101484.56;5097444;28;20387;-76
2023/10/05 02:08:05;;;;;;;6.80;1.70;;;;;;;10.08;100.00;101475.91;5090287;28;20067;-76
2023/10/05 02:10:50;;;;;;;5.20;1.67;;;;;;;10.03;100.00;101471.19;5090861;28;20057;-76
2023/10/05 02:13:37;;;;;;;9.07;1.85;;;;;;;10.04;100.00;101472.84;5094750;28;20088;-76
2023/10/05 02:16:22;;;;;;;6.63;1.33;;;;;;;10.00;100.00;101482.81;5077027;28;20038;-76
2023/10/05 02:19:07;;;;;;;4.60;2.03;;;;;;;9.95;100.00;101488.34;5104995;28;20116;-76
2023/10/05 02:21:55;;;;;;;4.72;1.48;;;;;;;9.97;100.00;101485.28;5109189;28;20097;-76
2023/10/05 02:24:42;;;;;;;8.25;1.52;;;;;;;9.91;100.00;101483.56;5091883;28;20039;-76
2023/10/05 02:27:28;;;;;;;6.13;1.77;;;;;;;9.86;100.00;101492.69;5115092;28;20097;-76
2023/10/05 02:30:14;;;;;;;7.00;2.20;;;;;;;9.86;100.00;101489.91;5111036;28;20507;-76
2023/10/05 02:32:59;;;;;;;3.63;1.70;;;;;;;9.80;100.00;101488.19;5104858;28;20383;-78
2023/10/05 02:35:48;;;;;;;5.07;2.03;;;;;;;9.75;100.00;101488.16;5085056;28;20078;-78
2023/10/05 02:38:32;;;;;;;6.55;1.67;;;;;;;9.76;100.00;101473.19;5089272;28;20393;-78
2023/10/05 02:41:37;;;;;;;5.68;1.80;;;;;;;9.71;100.00;101473.16;5104433;28;20046;-78
2023/10/05 02:47:08;;;;;;;7.78;2.08;;;;;;;9.67;100.00;101469.22;5102151;28;20046;-78
2023/10/05 02:49:52;;;;;;;4.75;1.70;;;;;;;9.63;100.00;101468.91;5116689;28;20047;-78
2023/10/05 02:52:38;;;;;;;7.88;1.55;;;;;;;9.56;100.00;101463.59;5112462;28;20043;-78
2023/10/05 02:55:23;;;;;;;5.78;1.70;;;;;;;9.61;100.00;101468.34;5108871;28;20069;-78
2023/10/05 02:58:07;;;;;;;5.80;1.70;;;;;;;9.53;100.00;101472.47;5094672;28;20067;-78
2023/10/05 03:00:51;;;;;;;6.03;1.63;;;;;;;9.52;100.00;101478.25;5107957;28;20038;-78
2023/10/05 03:03:36;;;;;;;4.75;1.70;;;;;;;9.52;100.00;101483.81;5107954;28;20034;-78
2023/10/05 03:06:23;;;;;;;5.13;1.70;;;;;;;9.49;100.00;101470.47;5080851;28;20068;-78
2023/10/05 03:09:08;;;;;;;5.38;2.30;;;;;;;9.46;100.00;101474.59;5104209;28;20038;-78
2023/10/05 03:11:53;;;;;;;7.03;1.98;;;;;;;9.44;100.00;101474.03;5097184;28;20098;-78
2023/10/05 03:14:38;;;;;;;9.85;2.10;;;;;;;9.38;100.00;101475.06;5123184;28;20046;-78
2023/10/05 03:17:26;;;;;;;5.03;1.65;;;;;;;9.35;100.00;101467.28;5094521;28;20051;-78
2023/10/05 03:20:15;;;;;;;3.60;1.25;;;;;;;9.34;100.00;101457.31;5114547;28;20035;-78
2023/10/05 03:23:03;;;;;;;5.63;2.03;;;;;;;9.33;100.00;101461.16;5106274;28;20058;-78
2023/10/05 03:25:52;;;;;;;4.22;1.50;;;;;;;9.28;100.00;101453.66;5104795;28;20047;-78
2023/10/05 03:28:37;;;;;;;8.75;2.00;;;;;;;9.27;100.00;101453.91;5086863;28;20395;-78
2023/10/05 03:31:29;;;;;;;6.03;1.65;;;;;;;9.25;100.00;101437.56;5089127;27;20066;-78
2023/10/05 03:34:13;;;;;;;4.17;1.77;;;;;;;9.21;100.00;101432.78;5096526;28;20271;-78
2023/10/05 03:37:03;;;;;;;5.70;1.75;;;;;;;9.17;100.00;101436.09;5121330;28;20069;-78
2023/10/05 03:42:35;;;;;;;5.18;1.90;;;;;;;9.13;100.00;101451.53;5116763;28;20038;-78
2023/10/05 03:45:22;;;;;;;5.65;1.80;;;;;;;9.15;100.00;101454.91;5106248;28;20034;-78
2023/10/05 03:48:06;;;;;;;4.88;1.60;;;;;;;9.07;100.00;101441.50;5120778;28;20043;-78
2023/10/05 03:50:51;;;;;;;3.95;1.52;;;;;;;9.04;100.00;101446.75;5112603;28;20145;-78
2023/10/05 03:53:35;;;;;;;5.22;1.83;;;;;;;8.99;100.00;101443.91;5080340;28;20120;-78
2023/10/05 03:56:19;;;;;;;4.18;1.33;;;;;;;8.99;100.00;101441.16;5089371;28;20038;-78
2023/10/05 03:59:05;;;;;;;5.68;1.92;;;;;;;8.95;100.00;101451.91;5119561;28;20452;-78
2023/10/05 04:01:49;;;;;;;5.50;1.50;;;;;;;8.89;100.00;101467.66;5117656;28;20057;-78
2023/10/05 04:04:37;;;;;;;5.35;1.63;;;;;;;8.90;100.00;101461.00;5091082;28;20093;-78
2023/10/05 04:07:21;;;;;;;4.63;1.77;;;;;;;8.85;100.00;101460.09;5106356;28;20039;-78
2023/10/05 04:10:07;;;;;;;4.13;1.90;;;;;;;8.88;100.00;101456.81;5103123;28;20054;-78
2023/10/05 04:12:51;;;;;;;4.55;1.70;;;;;;;8.80;100.00;101462.81;5111765;28;20047;-78
2023/10/05 04:15:39;;;;;;;4.88;1.85;;;;;;;8.75;100.00;101459.97;5100228;28;20050;-78
2023/10/05 04:18:24;;;;;;;6.22;1.58;;;;;;;8.75;100.00;101455.31;5096631;28;20416;-78
2023/10/05 04:21:10;;;;;;;3.58;1.38;;;;;;;8.75;100.00;101465.50;5121160;28;20081;-78
2023/10/05 04:23:57;;;;;;;6.43;1.77;;;;;;;8.73;100.00;101466.63;5096136;28;20085;-78
2023/10/05 04:26:47;;;;;;;3.15;1.55;;;;;;;8.69;100.00;101473.78;5098177;28;20097;-78
2023/10/05 04:29:31;;;;;;;6.72;1.63;;;;;;;8.69;100.00;101475.69;5072120;28;20043;-78
2023/10/05 04:32:15;;;;;;;6.80;1.70;;;;;;;8.64;100.00;101482.03;5122792;27;20525;-78
2023/10/05 04:35:14;;;;;;;5.38;1.90;;;;;;;8.64;100.00;101481.19;5119598;28;20046;-77
2023/10/05 04:38:00;;;;;;;5.10;1.92;;;;;;;8.62;100.00;101480.59;5101876;28;20412;-77
2023/10/05 04:40:45;;;;;;;5.50;1.67;;;;;;;8.64;100.00;101475.66;5119233;28;20050;-78
2023/10/05 04:43:30;;;;;;;2.65;1.40;;;;;;;8.62;100.00;101480.59;5090754;28;20080;-78
2023/10/05 04:46:18;;;;;;;4.28;1.60;;;;;;;8.60;100.00;101489.16;5109991;28;20390;-78
2023/10/05 04:49:08;;;;;;;4.13;1.63;;;;;;;8.61;100.00;101490.00;5118243;28;20502;-78
2023/10/05 04:51:52;;;;;;;7.55;1.58;;;;;;;8.59;100.00;101484.72;5091618;28;20043;-78
2023/10/05 04:54:39;;;;;;;5.32;1.60;;;;;;;8.56;100.00;101479.72;5114976;28;20102;-78
2023/10/05 04:57:35;;;;;;;3.67;1.60;;;;;;;8.56;100.00;101485.25;5096642;28;20063;-78
2023/10/05 05:06:12;;;;;;;4.82;1.67;;;;;;;8.47;100.00;101478.50;5105084;28;20038;-78
2023/10/05 05:08:58;;;;;;;4.15;1.63;;;;;;;8.51;100.00;101471.34;5108545;28;20512;-78
2023/10/05 05:11:43;;;;;;;4.07;1.20;;;;;;;8.45;100.00;101467.66;5107276;28;20434;-78
2023/10/05 05:14:27;;;;;;;4.93;1.88;;;;;;;8.45;100.00;101466.81;5102974;27;20444;-78
2023/10/05 05:17:18;;;;;;;4.00;1.60;;;;;;;8.43;100.00;101469.00;5097631;28;20038;-77
2023/10/05 05:20:11;;;;;;;5.85;1.60;;;;;;;8.37;100.00;101467.22;5099262;28;20560;-78
2023/10/05 05:22:55;;;;;;;4.50;1.58;;;;;;;8.37;100.00;101475.53;5081052;28;20099;-78
2023/10/05 05:25:39;;;;;;;3.60;1.40;;;;;;;8.36;100.00;101480.25;5105743;28;20046;-78
2023/10/05 05:28:23;;;;;;;3.38;1.40;;;;;;;8.33;100.00;101474.34;5089240;28;20043;-78
2023/10/05 05:31:13;;;;;;;3.30;1.58;;;;;;;8.32;100.00;101489.31;5112645;28;20043;-78
2023/10/05 05:33:59;;;;;;;4.65;1.30;;;;;;;8.37;100.00;101486.63;5103523;28;20391;-78
2023/10/05 05:36:44;;;;;;;4.07;1.60;;;;;;;8.31;100.00;101485.69;5087627;28;20055;-78
2023/10/05 05:39:32;;;;;;;4.53;1.42;;;;;;;8.31;100.00;101496.78;5111109;28;20119;-78
2023/10/05 05:42:18;;;;;;;5.47;1.52;;;;;;;8.33;100.00;101491.84;5104804;28;20048;-77
2023/10/05 05:45:15;;;;;;;5.10;1.42;;;;;;;8.28;100.00;101495.34;5104256;28;20093;-77
2023/10/05 05:47:59;;;;;;;4.95;1.55;;;;;;;8.24;100.00;101491.41;5094904;28;20403;-78
2023/10/05 05:50:43;;;;;;;3.42;1.45;;;;;;;8.23;100.00;101489.75;5093834;28;20156;-78
2023/10/05 05:53:29;;;;;;;5.30;1.98;;;;;;;8.24;100.00;101493.34;5117585;28;20038;-78
2023/10/05 05:56:19;;;;;;;2.88;1.40;;;;;;;8.24;100.00;101493.34;5117836;28;20039;-77
2023/10/05 05:59:04;;;;;;;5.22;1.60;;;;;;;8.19;100.00;101504.31;5096998;28;20047;-77
2023/10/05 06:01:48;;;;;;;6.43;1.58;;;;;;;8.18;100.00;101509.03;5113132;28;20047;-78
2023/10/05 06:04:42;;;;;;;4.78;1.80;;;;;;;8.16;100.00;101497.41;5087367;28;20054;-77
2023/10/05 06:07:28;;;;;;;4.53;1.60;;;;;;;8.16;100.00;101496.53;5099698;28;20039;-77
2023/10/05 06:10:12;;;;;;;5.68;1.70;;;;;;;8.18;100.00;101499.91;5110317;28;20101;-78
2023/10/05 06:12:58;;;;;;;5.00;1.50;;;;;;;8.11;100.00;101505.63;5116858;28;20042;-78
2023/10/05 06:15:42;;;;;;;4.93;1.60;;;;;;;8.09;100.00;101502.25;5073926;28;20073;-77
2023/10/05 06:18:26;;;;;;;4.50;1.60;;;;;;;8.08;100.00;101495.06;5087326;28;20081;-77
2023/10/05 06:21:11;;;;;;;5.22;1.70;;;;;;;8.11;100.00;101496.44;5075957;28;20030;-78
2023/10/05 06:23:55;;;;;;;8.25;2.03;;;;;;;8.13;100.00;101497.03;5101479;28;20046;-77
2023/10/05 06:26:40;;;;;;;5.22;1.75;;;;;;;8.12;100.00;101484.31;5093670;28;20092;-77
2023/10/05 06:29:24;;;;;;;4.20;1.65;;;;;;;8.13;100.00;101502.56;5089991;28;20100;-78
2023/10/05 06:32:08;;;;;;;4.85;1.67;;;;;;;8.16;100.00;101497.41;5110095;27;20083;-77
2023/10/05 06:34:53;;;;;;;3.78;1.92;;;;;;;8.14;100.00;101491.28;5093334;28;20044;-77
2023/10/05 06:37:41;;;;;;;6.93;1.60;;;;;;;8.19;100.00;101485.81;5085356;28;20058;-77
2023/10/05 06:40:29;;;;;;;5.28;1.58;;;;;;;8.22;100.00;101496.38;5105944;28;20093;-77
2023/10/05 06:43:15;;;;;;;5.40;2.00;;;;;;;8.26;100.00;101494.75;5115999;28;20217;-77
2023/10/05 06:46:09;;;;;;;4.28;1.85;;;;;;;8.33;100.00;101496.50;5109666;28;20108;-77
2023/10/05 06:48:53;;;;;;;5.05;1.80;;;;;;;8.43;100.00;101510.53;5085962;28;20068;-77
2023/10/05 06:51:43;;;;;;;4.10;1.80;;;;;;;8.52;100.00;101510.91;5092794;28;20042;-77
2023/10/05 06:54:27;;;;;;;5.18;1.80;;;;;;;8.60;100.00;101507.72;5106939;28;20038;-78
2023/10/05 06:57:12;;;;;;;6.50;2.22;;;;;;;8.71;100.00;101509.53;5100183;28;20046;-77
2023/10/05 06:59:57;;;;;;;7.05;2.08;;;;;;;8.82;100.00;101510.50;5093130;28;20507;-77
2023/10/05 07:02:41;;;;;;;6.60;2.38;;;;;;;8.92;100.00;101527.25;5108676;28;20039;-77
2023/10/05 07:05:28;;;;;;;7.07;2.10;;;;;;;9.01;100.00;101525.69;5112598;28;20043;-78
2023/10/05 07:08:14;;;;;;;5.43;2.20;;;;;;;9.14;100.00;101530.84;5097483;28;20105;-77
2023/10/05 07:10:59;;;;;;;4.07;2.30;;;;;;;9.21;100.00;101541.72;5074724;28;20078;-77
2023/10/05 07:13:43;;;;;;;5.28;1.92;;;;;;;9.31;100.00;101552.94;5092087;28;20081;-77
2023/10/05 07:16:29;;;;;;;5.55;2.20;;;;;;;9.40;100.00;101553.28;5095550;28;20088;-78
2023/10/05 07:19:13;;;;;;;5.82;2.00;;;;;;;9.48;100.00;101558.38;5108181;28;20058;-78
2023/10/05 07:21:57;;;;;;;8.30;2.20;;;;;;;9.54;100.00;101551.78;5091825;28;20050;-78
2023/10/05 07:24:41;;;;;;;4.50;1.88;;;;;;;9.61;100.00;101551.56;5080466;28;20197;-77
2023/10/05 07:27:26;;;;;;;3.95;1.85;;;;;;;9.68;100.00;101549.41;5102283;28;20111;-77
2023/10/05 07:30:10;;;;;;;3.95;1.80;;;;;;;9.74;100.00;101555.84;5096799;28;20540;-77
2023/10/05 07:32:55;;;;;;;5.70;2.15;;;;;;;9.78;100.00;101551.47;5087166;28;20058;-77
2023/10/05 07:35:43;;;;;;;3.55;1.75;;;;;;;9.82;100.00;101549.81;5105512;28;20046;-77
2023/10/05 07:38:28;;;;;;;5.22;1.90;;;;;;;9.87;100.00;101540.72;5112216;28;20046;-78
2023/10/05 07:41:12;;;;;;;5.68;2.33;;;;;;;9.92;100.00;101547.16;5110340;28;20070;-78
2023/10/05 07:43:56;;;;;;;5.88;2.25;;;;;;;9.93;100.00;101542.44;5096594;28;20073;-77
2023/10/05 07:46:40;;;;;;;4.80;1.83;;;;;;;9.98;100.00;101534.16;5091102;28;20038;-77
2023/10/05 07:49:24;;;;;;;4.78;2.10;;;;;;;10.01;100.00;101537.22;5087821;28;20051;-78
2023/10/05 07:52:12;;;;;;;5.18;1.88;;;;;;;10.04;100.00;101533.91;5095222;28;20043;-77
2023/10/05 07:54:57;;;;;;;5.78;2.20;;;;;;;10.09;100.00;101530.34;5103433;28;20042;-77
2023/10/05 07:57:42;;;;;;;5.28;2.63;;;;;;;10.12;100.00;101532.59;5100302;28;20388;-78
2023/10/05 08:00:26;;;;;;;4.97;1.98;;;;;;;10.18;100.00;101541.78;5096003;28;20095;-77
2023/10/05 08:03:10;;;;;;;5.22;2.17;;;;;;;10.23;100.00;101541.84;5078347;28;20383;-77
2023/10/05 08:05:54;;;;;;;5.70;2.10;;;;;;;10.32;100.00;101542.19;5097155;28;20492;-77
2023/10/05 08:08:40;;;;;;;6.90;2.13;;;;;;;10.42;100.00;101550.56;5096491;28;20037;-78
2023/10/05 08:11:25;;;;;;;6.68;2.65;;;;;;;10.51;100.00;101565.66;5070101;28;20046;-77
2023/10/05 08:14:10;;;;;;;6.70;2.42;;;;;;;10.60;100.00;101571.53;5104257;28;20039;-77
2023/10/05 08:16:55;;;;;;;7.00;2.35;;;;;;;10.71;100.00;101574.09;5091782;28;20047;-77
2023/10/05 08:19:39;;;;;;;10.55;2.70;;;;;;;10.84;100.00;101570.00;5079147;28;20084;-77
2023/10/05 08:22:24;;;;;;;5.13;2.20;;;;;;;11.02;100.00;101570.66;5092944;28;20035;-78
2023/10/05 08:25:12;;;;;;;5.85;2.22;;;;;;;11.18;100.00;101577.94;5118265;28;20490;-77
2023/10/05 08:27:56;;;;;;;4.40;2.03;;;;;;;11.38;100.00;101568.84;5100981;28;20038;-77
2023/10/05 08:31:04;;;;;;;7.75;2.72;;;;;;;11.55;100.00;101579.72;5107756;28;20063;-77
2023/10/05 08:33:55;;;;;;;7.43;2.33;;;;;;;11.74;100.00;101580.03;5097647;28;20144;-78
2023/10/05 08:36:39;;;;;;;7.65;3.05;;;;;;;11.92;100.00;101584.25;5111732;28;20051;-78
2023/10/05 08:39:26;;;;;;;6.85;2.45;;;;;;;12.07;100.00;101587.06;5113074;28;20042;-77
2023/10/05 08:42:13;;;;;;;6.53;2.67;;;;;;;12.26;100.00;101579.00;5071156;28;20043;-78
2023/10/05 08:45:00;;;;;;;9.75;3.15;;;;;;;12.46;100.00;101583.72;5097581;28;20466;-78
2023/10/05 08:47:50;;;;;;;6.20;2.97;;;;;;;12.65;100.00;101581.19;5111119;28;20130;-77
2023/10/05 08:50:37;;;;;;;7.88;3.03;;;;;;;12.85;100.00;101585.88;5094345;28;20108;-77
2023/10/05 08:53:22;;;;;;;6.43;2.50;;;;;;;13.01;100.00;101589.41;5114411;28;20473;-78
2023/10/05 08:56:08;;;;;;;8.63;2.70;;;;;;;13.18;100.00;101593.53;5093020;28;20049;-77
2023/10/05 08:58:52;;;;;;;5.88;2.78;;;;;;;13.32;100.00;101590.19;5112176;28;20045;-77
2023/10/05 09:01:36;;;;;;;7.68;3.22;;;;;;;13.48;100.00;101583.38;5076617;28;20039;-78
2023/10/05 09:04:23;;;;;;;9.40;3.17;;;;;;;13.66;100.00;101592.22;5118183;28;20051;-77
2023/10/05 09:07:14;;;;;;;10.65;3.53;;;;;;;13.84;100.00;101588.72;5114681;28;20042;-76
2023/10/05 09:09:58;;;;;;;10.07;3.33;;;;;;;14.00;100.00;101579.13;5107516;28;20131;-75
2023/10/05 09:12:42;;;;;;;10.57;3.63;;;;;;;14.19;100.00;101581.22;5117788;28;20046;-76
2023/10/05 09:20:58;;;;;;;10.45;3.60;;;;;;;14.70;100.00;101609.53;5089599;28;20046;-75
2023/10/05 09:23:42;;;;;;;9.52;3.35;;;;;;;14.89;100.00;101606.00;5079107;28;20050;-75
2023/10/05 09:26:33;;;;;;;8.52;3.40;;;;;;;15.09;100.00;101599.34;5111525;28;20410;-75
2023/10/05 09:29:28;;;;;;;9.70;3.58;;;;;;;15.29;100.00;101589.84;5077524;28;20089;-75
2023/10/05 09:32:25;;;;;;;10.88;3.88;;;;;;;15.46;100.00;101601.41;5088321;28;20131;-76
2023/10/05 09:35:34;;;;;;;8.75;3.92;;;;;;;15.62;100.00;101605.63;5085968;28;20034;-75
2023/10/05 09:38:20;;;;;;;9.02;3.72;;;;;;;15.81;100.00;101599.25;5078730;28;20038;-75
2023/10/05 09:41:04;;;;;;;9.80;3.75;;;;;;;15.98;100.00;101595.91;5091073;28;20053;-75
2023/10/05 09:43:51;;;;;;;9.75;3.60;;;;;;;16.14;100.00;101597.31;5067808;28;20039;-76
2023/10/05 09:46:37;;;;;;;8.52;3.17;;;;;;;16.30;100.00;101601.53;5089263;28;20065;-75
2023/10/05 09:49:21;;;;;;;11.63;3.22;;;;;;;16.45;100.00;101599.59;5108442;28;20588;-76
2023/10/05 09:52:08;;;;;;;10.90;3.25;;;;;;;16.60;100.00;101609.69;5092746;28;20127;-75
2023/10/05 09:54:53;;;;;;;8.50;3.10;;;;;;;16.75;100.00;101603.81;5107036;28;20049;-76
2023/10/05 09:57:53;;;;;;;10.65;3.20;;;;;;;16.94;100.00;101603.78;5092486;28;20124;-76
2023/10/05 10:03:23;;;;;;;10.52;3.10;;;;;;;17.30;100.00;101589.00;5075652;28;20038;-75
2023/10/05 10:06:10;;;;;;;14.60;3.00;;;;;;;17.43;100.00;101588.97;5087604;28;20084;-75
2023/10/05 10:09:26;;;;;;;9.05;2.60;;;;;;;17.64;100.00;101578.13;5096214;28;20043;-75
2023/10/05 10:12:10;;;;;;;5.93;2.03;;;;;;;17.85;100.00;101586.09;5090653;28;20042;-75
2023/10/05 10:14:58;;;;;;;10.48;2.33;;;;;;;18.03;100.00;101585.13;5083235;28;20106;-75
2023/10/05 10:17:45;;;;;;;12.05;2.35;;;;;;;18.21;100.00;101585.22;5107913;28;20043;-75
2023/10/05 10:20:35;;;;;;;14.05;2.63;;;;;;;18.35;100.00;101586.00;5084431;28;20469;-76
2023/10/05 10:23:27;;;;;;;6.65;2.25;;;;;;;18.52;100.00;101588.06;5088182;28;20044;-75
2023/10/05 10:26:16;;;;;;;7.30;1.80;;;;;;;18.66;100.00;101579.56;5090624;28;20120;-77
2023/10/05 10:29:05;;;;;;;6.22;2.40;;;;;;;18.80;100.00;101580.31;5118665;28;20046;-77
2023/10/05 10:32:18;;;;;;;9.98;2.05;;;;;;;18.92;100.00;101582.53;5108398;27;20490;-77
2023/10/05 10:35:09;;;;;;;;;;;;;;;19.06;100.00;101576.78;5104849;28;20514;-77
2023/10/05 10:37:59;;;;;;;;;;;;;;;19.20;100.00;101572.69;5112881;28;20295;-77
2023/10/05 10:40:53;;;;;;;;;;;;;;;19.34;100.00;101575.38;5098909;28;19923;-77
2023/10/05 10:43:37;;;;;;;;;;;;;;;19.49;100.00;101570.44;5120817;28;20050;-77
2023/10/05 10:46:28;;;;;;;;;;;;;;;19.64;100.00;101570.78;5108824;28;20355;-77
2023/10/05 10:49:17;;;;;;;;;;;;;;;19.81;100.00;101575.66;5098035;28;20164;-77
2023/10/05 10:52:02;;;;;;;;;;;;;;;19.88;100.00;101563.88;5098500;28;20077;-77
2023/10/05 10:54:46;;;;;;;;;;;;;;;20.02;100.00;101558.06;5117145;28;20440;-77
2023/10/05 10:57:30;;;;;;;;;;;;;;;20.09;100.00;101549.94;5100185;28;19991;-77
2023/10/05 11:03:18;;;;;;;;;;;;;;;20.30;100.00;101552.88;5096460;28;19915;-77
2023/10/05 11:06:04;;;;;;;;;;;;;;;20.39;100.00;101561.31;5107857;28;19915;-77
2023/10/05 11:08:50;;;;;;;;;;;;;;;20.47;100.00;101563.28;5120619;28;19918;-77
2023/10/05 11:11:36;;;;;;;;;;;;;;;20.54;100.00;101566.47;5107799;28;19953;-77
2023/10/05 11:14:31;;;;;;;;;;;;;;;20.63;100.00;101564.44;5115554;28;20029;-77
2023/10/05 11:17:24;;;;;;;;;;;;;;;20.75;100.00;101553.28;5094047;28;20041;-78
2023/10/05 11:20:13;;;;;;;;;;;;;;;20.91;100.00;101544.22;5120496;28;19981;-77
2023/10/05 11:23:02;;;;;;;;;;;;;;;21.01;100.00;101538.22;5096743;28;19957;-77
2023/10/05 11:25:47;;;;;;;;;;;;;;;21.06;100.00;101534.34;5106922;28;19995;-78
2023/10/05 11:28:31;;;;;;;;;;;;;;;21.16;100.00;101546.09;5110093;28;20321;-78
2023/10/05 11:31:21;;;;;;;;;;;;;;;21.26;100.00;101553.34;5114691;28;19966;-77
2023/10/05 11:34:10;;;;;;;;;;;;;;;21.36;100.00;101549.28;5093834;28;19918;-77
2023/10/05 11:36:55;;;;;;;;;;;;;;;21.43;100.00;101538.31;5105470;28;19965;-78
2023/10/05 11:39:39;;;;;;;;;;;;;;;21.52;100.00;101538.25;5104020;28;19923;-77
2023/10/05 11:42:27;;;;;;;;;;;;;;;21.58;100.00;101540.53;5092150;28;19914;-78
2023/10/05 11:45:16;;;;;;;;;;;;;;;21.66;98.59;101537.97;5119892;28;20358;-77
2023/10/05 11:48:13;;;;;;;;;;;;;;;21.73;100.00;101541.06;5113050;28;19933;-78
2023/10/05 11:50:57;;;;;;;;;;;;;;;21.82;96.88;101539.84;5105493;28;19915;-78
2023/10/05 11:53:43;;;;;;;;;;;;;;;21.87;99.74;101544.47;5108496;28;19975;-77
2023/10/05 11:56:30;;;;;;;;;;;;;;;21.93;99.31;101548.72;5103650;28;19914;-77
2023/10/05 11:59:15;;;;;;;;;;;;;;;22.00;97.00;101550.97;5093337;28;19964;-77
2023/10/05 12:01:59;;;;;;;;;;;;;;;22.06;97.79;101539.13;5108971;28;19915;-77
2023/10/05 12:04:43;;;;;;;;;;;;;;;22.17;95.90;101530.19;5103418;28;19919;-78
2023/10/05 12:07:27;;;;;;;;;;;;;;;22.23;91.60;101526.84;5113799;28;19914;-76
2023/10/05 12:10:11;;;;;;;;;;;;;;;22.26;92.85;101526.13;5103687;28;19915;-76
2023/10/05 12:12:55;;;;;;;;;;;;;;;22.34;94.83;101527.19;5095046;28;19938;-77
2023/10/05 12:15:39;;;;;;;;;;;;;;;22.40;94.91;101520.16;5109382;28;19931;-77
2023/10/05 12:18:23;;;;;;;;;;;;;;;22.46;96.96;101524.41;5113477;28;19914;-77
2023/10/05 12:21:09;;;;;;;;;;;;;;;22.53;94.28;101523.81;5076645;28;19929;-77
2023/10/05 12:23:53;;;;;;;;;;;;;;;22.55;89.27;101523.50;5098490;28;19918;-77
2023/10/05 12:26:39;;;;;;;;;;;;;;;22.61;88.68;101505.09;5086399;28;19921;-77
2023/10/05 12:29:23;;;;;;;;;;;;;;;22.70;92.19;101500.13;5092466;28;19918;-77
2023/10/05 12:32:13;;;;;;;;;;;;;;;22.74;92.20;101496.25;5118189;27;20354;-77
2023/10/05 12:34:59;;;;;;;;;;;;;;;22.80;91.25;101493.19;5097013;28;19991;-77
2023/10/05 12:37:46;;;;;;;;;;;;;;;22.90;84.33;101487.88;5113237;28;19938;-77
2023/10/05 12:40:33;;;;;;;;;;;;;;;23.02;79.16;101498.41;5089674;28;19960;-77
2023/10/05 12:43:18;;;;;;;;;;;;;;;23.06;80.00;101487.19;5101715;28;19914;-77
2023/10/05 12:46:02;;;;;;;;;;;;;;;23.09;78.39;101484.47;5107442;28;19965;-77
2023/10/05 12:48:46;;;;;;;;;;;;;;;23.01;72.57;101490.25;5092948;28;19933;-77
2023/10/05 12:51:30;;;;;;;;;;;;;;;22.92;70.83;101491.16;5087154;28;19914;-77
2023/10/05 12:54:28;;;;;;;;;;;;;;;22.97;78.15;101488.13;5089277;28;19914;-77
2023/10/05 12:57:12;;;;;;;;;;;;;;;23.02;77.70;101489.09;5098568;28;19930;-77
2023/10/05 12:59:57;;;;;;;;;;;;;;;23.02;73.57;101491.91;5076226;28;19918;-77
2023/10/05 13:02:42;;;;;;;;;;;;;;;22.99;72.40;101484.13;5106252;28;20388;-78
2023/10/05 13:05:31;;;;;;;;;;;;;;;23.01;72.31;101471.25;5101496;28;19923;-77
2023/10/05 13:08:16;;;;;;;;;;;;;;;22.98;74.64;101474.78;5094852;28;19922;-77
2023/10/05 13:10:59;;;;;;;;;;;;;;;22.94;73.61;101471.81;5104827;28;19914;-77
2023/10/05 13:13:44;;;;;;;;;;;;;;;22.94;72.46;101465.34;5118640;28;19960;-77
2023/10/05 13:16:28;;;;;;;;;;;;;;;22.89;74.85;101469.22;5106425;28;20371;-77
2023/10/05 13:19:13;;;;;;;;;;;;;;;22.83;76.49;101476.31;5105369;28;19929;-77
2023/10/05 13:21:57;;;;;;;;;;;;;;;22.69;73.76;101473.00;5089245;28;20294;-77
2023/10/05 13:24:41;;;;;;;;;;;;;;;22.68;77.43;101472.19;5093014;28;19915;-77
2023/10/05 13:27:25;;;;;;;;;;;;;;;22.70;78.95;101469.81;5113223;28;20354;-77
2023/10/05 13:30:10;;;;;;;;;;;;;;;22.72;79.13;101458.97;5117031;28;19931;-77
2023/10/05 13:32:57;;;;;;;;;;;;;;;22.77;77.57;101460.75;5120032;27;20001;-77
2023/10/05 13:35:42;;;;;;;;;;;;;;;22.82;73.95;101457.69;5090381;28;20428;-77
2023/10/05 13:38:29;;;;;;;;;;;;;;;22.87;73.83;101465.94;5106257;28;19964;-77
2023/10/05 13:41:13;;;;;;;;;;;;;;;22.89;75.07;101457.06;5107901;28;19914;-77
2023/10/05 13:43:57;;;;;;;;;;;;;;;22.95;73.43;101450.84;5093375;28;19976;-77